aviador You're here:

OTHH Decoded Metar

in
Report Time2018-01-17 09:00:00
UTC Time2018-01-17 09:19:26
Flight Rules vfr VFR
Wind330° at 11 kt
W.Decomp.*RWY 34: 10.8 kt HW 1.9 kt LCW
W.Rank330° ranks 1
Current wind is below 330° avg. (11.6)
Visibility9999 m
Phenomena:N/A
Clouds:Few 040 Hf
Expected CloudBase > 5,600 ft AGL from Temp-Dew spread
CeilingNone
Temp21°C
Dew Point07°C (40% RH)
AAT16.3°C
QNH1016 hPa
Raw Report
METAR OTHH 170900Z 33011KT 9999 FEW040 21/07 Q1016 NOSIG=

Extra information for OTHH:More info

Social comments